createdAt,value
2019-05-09T00:01:35.447Z,10.10
2019-05-09T00:04:05.405Z,10.10
2019-05-09T00:06:35.023Z,10.10
2019-05-09T00:09:06.492Z,10.10
2019-05-09T00:11:35.783Z,10.10
2019-05-09T00:14:05.076Z,10.10
2019-05-09T00:16:34.441Z,10.10
2019-05-09T00:19:03.747Z,10.10
2019-05-09T00:21:37.074Z,10.10
2019-05-09T00:24:06.448Z,10.00
2019-05-09T00:26:35.743Z,10.10
2019-05-09T00:29:09.672Z,10.10
2019-05-09T00:31:57.194Z,10.00
2019-05-09T00:34:44.940Z,10.00
2019-05-09T00:37:14.272Z,10.10
2019-05-09T00:39:43.563Z,10.10
2019-05-09T00:42:13.815Z,10.00
2019-05-09T00:44:44.840Z,10.00
2019-05-09T00:47:21.224Z,10.00
2019-05-09T00:49:50.565Z,9.90
2019-05-09T00:52:19.926Z,9.90
2019-05-09T00:54:49.240Z,9.90
2019-05-09T00:57:33.629Z,9.90
2019-05-09T01:00:16.451Z,9.80
2019-05-09T01:02:45.785Z,9.90
2019-05-09T01:05:15.152Z,9.90
2019-05-09T01:07:44.467Z,9.90
2019-05-09T01:10:15.396Z,9.80
2019-05-09T01:12:44.702Z,9.80
2019-05-09T01:15:29.254Z,9.70
2019-05-09T01:17:58.574Z,9.70
2019-05-09T01:20:27.945Z,9.70
2019-05-09T01:23:57.955Z,9.60
2019-05-09T01:26:27.244Z,9.60
2019-05-09T01:28:56.529Z,9.70
2019-05-09T01:31:25.863Z,9.60
2019-05-09T01:33:56.783Z,9.60
2019-05-09T01:36:27.737Z,9.50
2019-05-09T01:38:57.098Z,9.40
2019-05-09T01:41:30.826Z,9.30
2019-05-09T01:43:57.393Z,9.30
2019-05-09T01:46:26.730Z,9.40
2019-05-09T01:48:56.009Z,9.30
2019-05-09T01:51:25.608Z,9.30
2019-05-09T01:53:55.107Z,9.40
2019-05-09T01:56:24.389Z,9.40
2019-05-09T01:58:54.052Z,9.30
2019-05-09T02:01:24.234Z,9.30
2019-05-09T02:03:54.114Z,9.30
2019-05-09T02:06:24.328Z,9.20
2019-05-09T02:08:54.706Z,9.20
2019-05-09T02:11:38.449Z,9.20
2019-05-09T02:13:55.121Z,9.10
2019-05-09T02:16:26.088Z,9.00
2019-05-09T02:18:57.013Z,9.10
2019-05-09T02:21:26.294Z,9.10
2019-05-09T02:23:55.719Z,9.20
2019-05-09T02:26:24.989Z,9.10
2019-05-09T02:28:54.307Z,9.10
2019-05-09T02:31:24.690Z,9.10
2019-05-09T02:33:54.471Z,9.10
2019-05-09T02:36:23.914Z,9.10
2019-05-09T02:38:53.297Z,9.10
2019-05-09T02:41:22.587Z,9.10
2019-05-09T02:43:51.877Z,9.10
2019-05-09T02:46:22.854Z,9.20
2019-05-09T02:48:52.131Z,9.20
2019-05-09T02:51:21.444Z,9.10
2019-05-09T02:53:50.930Z,9.10
2019-05-09T02:56:20.241Z,9.10
2019-05-09T02:58:53.873Z,9.10
2019-05-09T03:01:34.031Z,9.10
2019-05-09T03:04:03.393Z,9.10
2019-05-09T03:06:32.700Z,9.00
2019-05-09T03:09:02.051Z,9.00
2019-05-09T03:11:31.369Z,8.90
2019-05-09T03:14:00.733Z,8.90
2019-05-09T03:16:30.052Z,8.80
2019-05-09T03:19:00.312Z,8.80
2019-05-09T03:21:33.931Z,8.70
2019-05-09T03:24:03.352Z,8.60
2019-05-09T03:26:38.593Z,8.40
2019-05-09T03:29:29.191Z,8.30
2019-05-09T03:32:00.260Z,8.30
2019-05-09T03:34:30.336Z,8.40
2019-05-09T03:36:59.904Z,8.30
2019-05-09T03:39:29.187Z,8.30
2019-05-09T03:41:58.469Z,8.30
2019-05-09T03:44:28.377Z,8.40
2019-05-09T03:46:59.317Z,8.30
2019-05-09T03:49:28.594Z,8.30
2019-05-09T03:51:58.609Z,8.30
2019-05-09T03:54:28.419Z,8.40
2019-05-09T03:57:07.629Z,8.40
2019-05-09T03:59:38.109Z,8.40
2019-05-09T04:02:09.915Z,8.30
2019-05-09T04:04:38.560Z,8.30
2019-05-09T04:07:08.531Z,8.20
2019-05-09T04:09:39.732Z,8.20
2019-05-09T04:12:09.208Z,8.20
2019-05-09T04:14:38.862Z,8.30
2019-05-09T04:17:09.781Z,8.40
2019-05-09T04:19:40.477Z,8.40
2019-05-09T04:22:10.414Z,8.40
2019-05-09T04:24:39.738Z,8.50
2019-05-09T04:27:10.709Z,8.40
2019-05-09T04:29:39.995Z,8.40
2019-05-09T04:32:09.278Z,8.40
2019-05-09T04:34:38.612Z,8.50
2019-05-09T04:37:09.135Z,8.60
2019-05-09T04:39:40.659Z,8.60
2019-05-09T04:42:10.467Z,8.70
2019-05-09T04:44:41.429Z,8.80
2019-05-09T04:47:10.709Z,8.80
2019-05-09T04:49:45.025Z,8.90
2019-05-09T04:52:11.056Z,9.00
2019-05-09T04:54:40.348Z,8.90
2019-05-09T04:57:09.692Z,8.90
2019-05-09T04:59:38.963Z,8.90
2019-05-09T05:02:18.642Z,9.00
2019-05-09T05:05:40.197Z,9.00
2019-05-09T05:08:09.677Z,9.00
2019-05-09T05:10:38.988Z,9.00
2019-05-09T05:13:22.165Z,9.10
2019-05-09T05:15:39.400Z,9.20
2019-05-09T05:18:08.695Z,9.20
2019-05-09T05:20:38.077Z,9.20
2019-05-09T05:23:09.021Z,9.10
2019-05-09T05:25:38.589Z,9.10
2019-05-09T05:28:08.650Z,9.20
2019-05-09T05:30:39.129Z,9.20
2019-05-09T05:33:10.072Z,9.20
2019-05-09T05:35:47.991Z,9.20
2019-05-09T05:38:17.762Z,9.30
2019-05-09T05:40:49.717Z,9.30
2019-05-09T05:43:18.326Z,9.20
2019-05-09T05:45:49.824Z,9.20
2019-05-09T05:48:20.798Z,9.20
2019-05-09T05:50:50.140Z,9.20
2019-05-09T05:53:19.702Z,9.20
2019-05-09T05:55:52.547Z,9.20
2019-05-09T05:58:20.123Z,9.30
2019-05-09T06:00:49.475Z,9.40
2019-05-09T06:03:18.796Z,9.50
2019-05-09T06:05:51.466Z,9.50
2019-05-09T06:08:19.145Z,9.50
2019-05-09T06:10:48.463Z,9.60
2019-05-09T06:13:18.331Z,9.60
2019-05-09T06:15:48.228Z,9.70
2019-05-09T06:18:18.398Z,9.80
2019-05-09T06:20:48.662Z,9.70
2019-05-09T06:23:18.514Z,9.80
2019-05-09T06:25:48.567Z,9.90
2019-05-09T06:28:20.647Z,9.90
2019-05-09T06:30:50.056Z,10.00
2019-05-09T06:33:19.350Z,10.10
2019-05-09T06:35:48.635Z,10.10
2019-05-09T06:38:18.716Z,10.10
2019-05-09T06:40:48.471Z,10.20
2019-05-09T06:43:19.773Z,10.30
2019-05-09T06:46:02.678Z,10.40
2019-05-09T06:48:32.138Z,10.40
2019-05-09T06:51:01.438Z,10.40
2019-05-09T06:53:30.786Z,10.50
2019-05-09T06:56:00.132Z,10.60
2019-05-09T06:58:40.079Z,10.70
2019-05-09T07:01:19.828Z,10.70
2019-05-09T07:03:52.863Z,10.80
2019-05-09T07:06:23.515Z,10.90
2019-05-09T07:08:58.486Z,11.00
2019-05-09T07:11:27.999Z,11.10
2019-05-09T07:13:57.948Z,11.20
2019-05-09T07:16:27.723Z,11.30
2019-05-09T07:18:57.923Z,11.30
2019-05-09T07:21:28.972Z,11.40
2019-05-09T07:23:58.438Z,11.50
2019-05-09T07:26:29.331Z,11.50
2019-05-09T07:28:59.521Z,11.60
2019-05-09T07:31:48.876Z,11.70
2019-05-09T07:34:20.066Z,11.80
2019-05-09T07:36:49.402Z,11.90
2019-05-09T07:39:18.758Z,12.00
2019-05-09T07:41:48.308Z,12.00
2019-05-09T07:44:18.339Z,12.10
2019-05-09T07:46:52.072Z,12.30
2019-05-09T07:49:21.361Z,12.30
2019-05-09T07:51:50.688Z,12.40
2019-05-09T07:54:25.029Z,12.50
2019-05-09T07:56:51.094Z,12.60
2019-05-09T07:59:20.675Z,12.80
2019-05-09T08:01:50.068Z,12.90
2019-05-09T08:04:19.367Z,12.90
2019-05-09T08:06:48.803Z,13.00
2019-05-09T08:09:18.748Z,12.90
2019-05-09T08:11:48.609Z,12.90
2019-05-09T08:14:17.906Z,13.00
2019-05-09T08:16:47.616Z,13.10
2019-05-09T08:19:18.090Z,13.20
2019-05-09T08:21:48.062Z,13.10
2019-05-09T08:24:18.327Z,13.00
2019-05-09T08:26:47.974Z,13.00
2019-05-09T08:29:19.840Z,12.90
2019-05-09T08:31:48.716Z,12.90
2019-05-09T08:34:20.800Z,13.00
2019-05-09T08:36:50.120Z,13.10
2019-05-09T08:39:20.507Z,13.30
2019-05-09T08:41:50.359Z,13.60
2019-05-09T08:44:19.650Z,13.70
2019-05-09T08:46:49.277Z,13.80
2019-05-09T08:49:20.304Z,13.90
2019-05-09T08:52:07.816Z,13.90
2019-05-09T08:54:42.181Z,14.00
2019-05-09T08:57:11.530Z,14.10
2019-05-09T08:59:41.380Z,14.10
2019-05-09T09:02:15.427Z,14.20
2019-05-09T09:04:42.155Z,14.10
2019-05-09T09:07:11.451Z,14.10
2019-05-09T09:09:40.750Z,14.00
2019-05-09T09:12:26.069Z,14.00
2019-05-09T09:14:41.472Z,14.10
2019-05-09T09:17:11.063Z,14.10
2019-05-09T09:19:40.413Z,14.00
2019-05-09T09:22:09.711Z,14.10
2019-05-09T09:24:39.033Z,14.00
2019-05-09T09:27:08.614Z,13.80
2019-05-09T09:29:38.299Z,13.80
2019-05-09T09:32:08.500Z,13.70
2019-05-09T09:34:38.199Z,13.70
2019-05-09T09:37:11.542Z,13.80
2019-05-09T09:39:44.375Z,13.80
2019-05-09T09:42:11.324Z,13.90
2019-05-09T09:44:40.960Z,14.00
2019-05-09T09:47:10.299Z,13.90
2019-05-09T09:49:39.675Z,13.90
2019-05-09T09:52:09.251Z,13.90
2019-05-09T09:54:38.879Z,14.00
2019-05-09T09:57:09.867Z,14.00
2019-05-09T09:59:41.164Z,14.00
2019-05-09T10:02:15.172Z,13.90
2019-05-09T10:04:44.467Z,14.00
2019-05-09T10:07:13.828Z,14.00
2019-05-09T10:09:43.470Z,14.10
2019-05-09T10:12:18.039Z,14.10
2019-05-09T10:15:00.558Z,14.20
2019-05-09T10:17:34.738Z,14.30
2019-05-09T10:20:18.146Z,14.40
2019-05-09T10:22:58.324Z,14.60
2019-05-09T10:25:19.148Z,14.80
2019-05-09T10:27:49.642Z,14.90
2019-05-09T10:30:32.344Z,14.90
2019-05-09T10:33:01.712Z,15.00
2019-05-09T10:35:31.077Z,15.10
2019-05-09T10:38:00.400Z,15.40
2019-05-09T10:40:29.744Z,15.60
2019-05-09T10:43:33.158Z,15.40
2019-05-09T10:46:05.148Z,15.40
2019-05-09T10:48:34.545Z,15.20
2019-05-09T10:51:06.060Z,15.50
2019-05-09T10:53:34.908Z,15.50
2019-05-09T10:56:04.266Z,15.70
2019-05-09T10:58:33.565Z,15.90
2019-05-09T11:01:02.871Z,15.90
2019-05-09T11:03:32.461Z,15.90
2019-05-09T11:06:01.787Z,16.10
2019-05-09T11:08:31.122Z,16.10
2019-05-09T11:11:00.512Z,16.30
2019-05-09T11:13:29.836Z,16.60
2019-05-09T11:15:59.188Z,16.80
2019-05-09T11:18:28.744Z,16.80
2019-05-09T11:20:58.284Z,16.60
2019-05-09T11:23:29.229Z,16.70
2019-05-09T11:25:58.758Z,16.70
2019-05-09T11:28:28.636Z,16.80
2019-05-09T11:30:58.494Z,16.60
2019-05-09T11:33:28.174Z,16.70
2019-05-09T11:35:58.072Z,16.70
2019-05-09T11:38:35.514Z,16.90
2019-05-09T11:40:59.550Z,17.00
2019-05-09T11:43:29.911Z,16.80
2019-05-09T11:45:59.565Z,16.60
2019-05-09T11:48:29.128Z,16.60
2019-05-09T11:50:59.085Z,16.90
2019-05-09T11:53:28.942Z,17.10
2019-05-09T11:55:58.565Z,17.20
2019-05-09T11:58:28.236Z,17.00
2019-05-09T12:00:57.668Z,17.10
2019-05-09T12:03:26.990Z,17.00
2019-05-09T12:05:58.334Z,17.30
2019-05-09T12:08:27.370Z,17.20
2019-05-09T12:10:57.903Z,17.10
2019-05-09T12:13:27.717Z,17.10
2019-05-09T12:15:58.455Z,17.10
2019-05-09T12:18:28.573Z,17.30
2019-05-09T12:20:58.048Z,17.70
2019-05-09T12:23:29.174Z,18.00
2019-05-09T12:25:58.402Z,18.40
2019-05-09T12:28:27.780Z,18.50
2019-05-09T12:30:57.071Z,18.10
2019-05-09T12:33:28.373Z,18.10
2019-05-09T12:35:59.496Z,18.40
2019-05-09T12:38:28.963Z,18.30
2019-05-09T12:41:00.553Z,18.40
2019-05-09T12:43:29.399Z,18.50
2019-05-09T12:46:01.412Z,18.30
2019-05-09T12:48:30.686Z,17.80
2019-05-09T12:51:00.055Z,17.30
2019-05-09T12:53:29.337Z,16.90
2019-05-09T12:56:01.676Z,16.90
2019-05-09T12:58:31.565Z,16.80
2019-05-09T13:01:01.317Z,16.60
2019-05-09T13:03:30.758Z,16.50
2019-05-09T13:06:00.077Z,16.50
2019-05-09T13:08:29.414Z,16.50
2019-05-09T13:11:01.941Z,16.40
2019-05-09T13:13:32.214Z,16.40
2019-05-09T13:16:02.613Z,16.10
2019-05-09T13:18:33.511Z,15.90
2019-05-09T13:21:02.845Z,15.80
2019-05-09T13:23:32.217Z,15.90
2019-05-09T13:26:01.570Z,16.00
2019-05-09T13:28:30.852Z,15.80
2019-05-09T13:31:00.277Z,15.80
2019-05-09T13:33:29.579Z,15.70
2019-05-09T13:35:59.188Z,15.80
2019-05-09T13:38:28.565Z,15.80
2019-05-09T13:40:58.471Z,15.80
2019-05-09T13:44:13.283Z,15.80
2019-05-09T13:46:39.013Z,15.80
2019-05-09T13:50:12.277Z,15.80
2019-05-09T13:52:41.596Z,15.90
2019-05-09T13:55:10.956Z,16.20
2019-05-09T13:57:40.301Z,16.30
2019-05-09T14:00:10.828Z,16.40
2019-05-09T14:02:40.405Z,16.40
2019-05-09T14:05:09.951Z,16.40
2019-05-09T14:07:39.259Z,16.50
2019-05-09T14:10:10.432Z,16.50
2019-05-09T14:12:39.923Z,16.70
2019-05-09T14:15:09.356Z,16.80
2019-05-09T14:17:49.299Z,16.80
2019-05-09T14:20:09.834Z,16.80
2019-05-09T14:22:39.468Z,17.00
2019-05-09T14:25:11.447Z,17.60
2019-05-09T14:27:39.896Z,17.70
2019-05-09T14:30:10.318Z,18.20
2019-05-09T14:32:40.319Z,18.60
2019-05-09T14:35:12.874Z,19.50
2019-05-09T14:37:42.206Z,20.50
2019-05-09T14:40:11.630Z,19.90
2019-05-09T14:42:40.947Z,19.00
2019-05-09T14:45:10.360Z,19.00
2019-05-09T14:47:42.451Z,18.80
2019-05-09T14:50:11.387Z,19.60
2019-05-09T14:52:40.703Z,20.40
2019-05-09T14:55:10.260Z,20.60
2019-05-09T14:57:39.598Z,21.30
2019-05-09T15:00:09.638Z,21.60
2019-05-09T15:02:39.143Z,21.90
2019-05-09T15:05:09.703Z,22.20
2019-05-09T15:07:39.303Z,21.80
2019-05-09T15:10:09.387Z,22.10
2019-05-09T15:12:39.202Z,21.30
2019-05-09T15:15:10.008Z,21.10
2019-05-09T15:17:39.463Z,21.00
2019-05-09T15:20:09.624Z,21.50
2019-05-09T15:22:39.014Z,21.60
2019-05-09T15:25:10.563Z,22.00
2019-05-09T15:27:39.851Z,21.40
2019-05-09T15:30:10.248Z,21.20
2019-05-09T15:32:39.625Z,20.70
2019-05-09T15:35:09.328Z,20.40
2019-05-09T15:37:38.964Z,20.20
2019-05-09T15:40:09.275Z,20.60
2019-05-09T15:42:39.254Z,20.00
2019-05-09T15:45:12.400Z,20.10
2019-05-09T15:47:42.090Z,20.10
2019-05-09T15:50:21.941Z,20.20
2019-05-09T15:52:43.007Z,19.60
2019-05-09T15:55:13.105Z,19.10
2019-05-09T15:57:42.432Z,18.80
2019-05-09T16:00:14.305Z,18.60
2019-05-09T16:02:43.743Z,18.30
2019-05-09T16:05:13.253Z,18.10
2019-05-09T16:07:42.551Z,17.70
2019-05-09T16:10:12.290Z,17.50
2019-05-09T16:12:41.574Z,17.50
2019-05-09T16:15:11.085Z,17.60
2019-05-09T16:17:40.441Z,17.50
2019-05-09T16:20:10.211Z,17.20
2019-05-09T16:22:39.532Z,17.20
2019-05-09T16:25:09.812Z,17.20
2019-05-09T16:27:39.112Z,16.90
2019-05-09T16:30:10.054Z,16.90
2019-05-09T16:32:39.352Z,16.80
2019-05-09T16:39:09.118Z,16.30
2019-05-09T16:41:39.157Z,15.90
2019-05-09T16:44:42.482Z,16.00
2019-05-09T16:47:11.775Z,16.00
2019-05-09T16:49:41.072Z,16.10
2019-05-09T16:52:10.419Z,16.00
2019-05-09T16:54:41.353Z,16.00
2019-05-09T16:57:10.649Z,16.00
2019-05-09T16:59:40.059Z,16.20
2019-05-09T17:02:18.881Z,16.40
2019-05-09T17:04:40.441Z,16.50
2019-05-09T17:07:09.787Z,17.30
2019-05-09T17:09:43.711Z,17.70
2019-05-09T17:12:13.000Z,17.40
2019-05-09T17:14:42.571Z,17.30
2019-05-09T17:17:27.831Z,17.00
2019-05-09T17:19:57.385Z,16.80
2019-05-09T17:22:44.605Z,16.70
2019-05-09T17:25:13.936Z,16.60
2019-05-09T17:28:53.036Z,16.60
2019-05-09T17:31:22.384Z,16.50
2019-05-09T17:34:49.148Z,16.20
2019-05-09T17:37:18.537Z,16.00
2019-05-09T17:39:47.857Z,16.10
2019-05-09T17:42:18.276Z,16.00
2019-05-09T17:44:48.752Z,15.80
2019-05-09T17:47:21.087Z,15.80
2019-05-09T17:49:50.377Z,15.70
2019-05-09T17:52:19.729Z,15.60
2019-05-09T17:54:49.024Z,15.60
2019-05-09T17:57:18.933Z,15.60
2019-05-09T17:59:49.036Z,15.60
2019-05-09T18:02:18.508Z,15.50
2019-05-09T18:04:48.209Z,15.40
2019-05-09T18:07:29.468Z,15.30
2019-05-09T18:09:58.777Z,15.10
2019-05-09T18:12:48.083Z,14.50
2019-05-09T18:15:19.362Z,14.20
2019-05-09T18:17:48.638Z,13.40
2019-05-09T18:20:18.189Z,12.70
2019-05-09T18:22:47.895Z,12.60
2019-05-09T18:25:18.712Z,12.60
2019-05-09T18:27:48.966Z,12.40
2019-05-09T18:34:18.599Z,12.10
2019-05-09T18:36:48.454Z,12.00
2019-05-09T18:42:48.637Z,11.60
2019-05-09T18:45:20.412Z,11.50
2019-05-09T18:47:49.697Z,11.20
2019-05-09T18:50:19.569Z,11.40
2019-05-09T18:52:48.876Z,11.50
2019-05-09T18:55:19.094Z,11.40
2019-05-09T18:57:48.447Z,11.40
2019-05-09T19:00:20.675Z,11.40
2019-05-09T19:02:50.710Z,11.40
2019-05-09T19:05:20.180Z,11.30
2019-05-09T19:07:49.487Z,11.50
2019-05-09T19:10:18.878Z,11.50
2019-05-09T19:12:48.216Z,11.30
2019-05-09T19:15:20.749Z,11.50
2019-05-09T19:17:51.689Z,11.60
2019-05-09T19:20:22.627Z,11.60
2019-05-09T19:22:52.022Z,11.60
2019-05-09T19:25:21.388Z,11.60
2019-05-09T19:27:50.679Z,11.70
2019-05-09T19:30:20.259Z,11.70
2019-05-09T19:32:49.554Z,11.70
2019-05-09T19:35:18.872Z,11.80
2019-05-09T19:37:48.175Z,11.80
2019-05-09T19:40:20.294Z,11.80
2019-05-09T19:42:49.282Z,11.90
2019-05-09T19:45:19.328Z,11.90
2019-05-09T19:47:48.645Z,11.90
2019-05-09T19:54:18.069Z,12.00
2019-05-09T19:56:48.127Z,12.10
2019-05-09T19:59:17.411Z,11.90
2019-05-09T20:02:56.374Z,12.10
2019-05-09T20:05:25.671Z,12.10
2019-05-09T20:07:54.965Z,12.10
2019-05-09T20:18:04.234Z,12.00
2019-05-09T20:20:33.596Z,12.00
2019-05-09T20:23:02.915Z,12.00
2019-05-09T20:25:32.244Z,12.00
2019-05-09T20:28:01.589Z,12.10
2019-05-09T20:30:30.993Z,12.10
2019-05-09T20:33:00.340Z,12.10
2019-05-09T20:35:29.756Z,12.10
2019-05-09T20:37:59.240Z,12.00
2019-05-09T20:40:28.838Z,12.00
2019-05-09T20:43:51.590Z,12.00
2019-05-09T20:45:35.945Z,12.10
2019-05-09T20:48:06.398Z,12.10
2019-05-09T20:50:36.035Z,12.10
2019-05-09T20:53:09.767Z,12.00
2019-05-09T20:55:36.910Z,12.00
2019-05-09T20:58:06.407Z,12.00
2019-05-09T21:00:35.893Z,11.90
2019-05-09T21:03:08.066Z,11.80
2019-05-09T21:05:36.627Z,11.90
2019-05-09T21:08:06.180Z,11.80
2019-05-09T21:10:35.719Z,11.80
2019-05-09T21:13:05.761Z,11.70
2019-05-09T21:15:35.301Z,11.60
2019-05-09T21:18:05.134Z,11.70
2019-05-09T21:20:34.610Z,11.60
2019-05-09T21:23:05.653Z,11.60
2019-05-09T21:25:35.387Z,11.60
2019-05-09T21:28:05.001Z,11.70
2019-05-09T21:30:34.514Z,11.70
2019-05-09T21:33:04.097Z,11.80
2019-05-09T21:35:33.419Z,11.70
2019-05-09T21:38:02.803Z,11.80
2019-05-09T21:40:32.133Z,11.80
2019-05-09T21:43:01.483Z,11.70
2019-05-09T21:45:30.868Z,11.60
2019-05-09T21:48:00.183Z,11.60
2019-05-09T21:50:29.486Z,11.60
2019-05-09T21:52:58.870Z,11.60
2019-05-09T21:55:28.198Z,11.60
2019-05-09T21:57:57.489Z,11.50
2019-05-09T22:00:35.901Z,11.60
2019-05-09T22:03:06.995Z,11.60
2019-05-09T22:05:37.847Z,11.60
2019-05-09T22:08:07.229Z,11.60
2019-05-09T22:10:36.648Z,11.50
2019-05-09T22:13:05.946Z,11.40
2019-05-09T22:15:35.326Z,11.30
2019-05-09T22:18:04.908Z,11.30
2019-05-09T22:20:34.236Z,11.30
2019-05-09T22:23:06.408Z,11.20
2019-05-09T22:25:34.616Z,11.20
2019-05-09T22:28:03.989Z,11.10
2019-05-09T22:30:33.328Z,11.10
2019-05-09T22:33:02.672Z,11.10
2019-05-09T22:35:32.322Z,11.10
2019-05-09T22:38:01.931Z,11.10
2019-05-09T22:40:31.253Z,11.00
2019-05-09T22:43:00.554Z,11.00
2019-05-09T22:45:30.017Z,11.00
2019-05-09T22:47:59.422Z,11.00
2019-05-09T22:50:28.843Z,11.00
2019-05-09T22:52:58.251Z,11.10
2019-05-09T22:55:27.549Z,11.00
2019-05-09T22:57:56.852Z,10.90
2019-05-09T23:00:26.326Z,11.00
2019-05-09T23:02:55.944Z,11.00
2019-05-09T23:05:25.332Z,11.00
2019-05-09T23:07:54.640Z,11.00
2019-05-09T23:10:23.958Z,11.00
2019-05-09T23:12:53.346Z,11.00
2019-05-09T23:15:22.745Z,11.10
2019-05-09T23:17:52.073Z,11.20
2019-05-09T23:20:39.676Z,11.20
2019-05-09T23:23:26.741Z,11.20
2019-05-09T23:25:56.105Z,11.10
2019-05-09T23:28:27.082Z,11.20
2019-05-09T23:30:58.054Z,11.00
2019-05-09T23:33:29.056Z,11.00
2019-05-09T23:35:58.352Z,11.10
2019-05-09T23:38:27.648Z,11.20
2019-05-09T23:40:57.023Z,11.20
2019-05-09T23:43:26.331Z,11.10
2019-05-09T23:45:55.649Z,11.20
2019-05-09T23:48:25.022Z,11.10
2019-05-09T23:50:54.324Z,11.10
2019-05-09T23:53:31.969Z,11.10
2019-05-09T23:56:18.706Z,11.00
2019-05-09T23:59:05.745Z,10.90
